logo
Search for airport 
image banner adimage banner adimage banner ad
image banner ad

YGBE - The Glebe

Located in Mowbray, Australia

ICAO - , IATA -

Data provided by Airmate  

General information

Coordinates: S41°25'36" E147°8'41"
Elevation is feet MSL.
Magnetic variation is 14° East
View others Airports in Tasmania

Operational data

Special qualification required
Current time UTC:
Current local time:
Weather at : YMLT - Launceston ( 14 km )
METAR: YMLT 171700Z AUTO 21006KT 9999 // BKN025 OVC040 03/02 Q1020
TAF: TAF AMD YMLT 171116Z 1712/1812 15007KT 9999 FEW045 FM171500 16006KT 9999 MIFG NSC FM172300 17008KT CAVOK PROB30 1720/1723 0300 FZFG
View NOTAMs / SUP AIP / TFR affecting this airport [VIEW]
Communications frequencies: [VIEW]

Runways:

Airport contact information

Address: Mowbray Australia

Satellite view of YGBE